Time;durP1;ratioP1;P1;durP2;ratioP2;P2;SDS_P1;SDS_P2;PMS_P1;PMS_P2;Temp;Humidity;BMP_temperature;BMP_pressure;BME280_temperature;BME280_humidity;BME280_pressure;Samples;Min_cycle;Max_cycle;Signal;HPM_P1;HPM_P2
2022/02/08 00:00:08;;;;;;;20.50;5.70;;;;;;;1.03;81.08;98538.41;106241;1277;137801;-75
2022/02/08 00:02:56;;;;;;;23.50;6.80;;;;;;;1.01;81.11;98541.30;106250;1277;22633;-74
2022/02/08 00:05:24;;;;;;;20.70;5.30;;;;;;;1.02;81.05;98540.68;106172;1277;138642;-75
2022/02/08 00:07:54;;;;;;;20.00;5.40;;;;;;;1.02;80.89;98537.60;106185;1277;22824;-74
2022/02/08 00:10:20;;;;;;;23.90;7.50;;;;;;;1.03;80.82;98539.34;106127;1277;24067;-74
2022/02/08 00:12:47;;;;;;;20.70;6.10;;;;;;;1.03;80.97;98547.35;106070;1280;137927;-75
2022/02/08 00:15:13;;;;;;;18.00;5.80;;;;;;;1.02;81.08;98542.66;106009;1278;23014;-75
2022/02/08 00:17:40;;;;;;;16.80;5.40;;;;;;;1.01;81.07;98542.54;106047;1277;138354;-75
2022/02/08 00:20:08;;;;;;;20.40;4.80;;;;;;;1.00;81.12;98544.65;106079;1277;25287;-75
2022/02/08 00:22:35;;;;;;;20.40;5.30;;;;;;;1.00;81.24;98550.15;105805;1278;138270;-75
2022/02/08 00:25:04;;;;;;;25.40;5.40;;;;;;;1.02;81.05;98552.71;106253;1277;24229;-74
2022/02/08 00:27:31;;;;;;;18.50;5.20;;;;;;;1.02;81.20;98554.48;106029;1277;23091;-75
2022/02/08 00:29:57;;;;;;;18.10;4.90;;;;;;;1.05;81.16;98558.42;105902;1277;137331;-74
2022/02/08 00:32:24;;;;;;;18.40;5.00;;;;;;;1.06;81.27;98552.58;106207;1277;25258;-74
2022/02/08 00:34:51;;;;;;;20.20;5.90;;;;;;;1.04;81.09;98556.86;105969;1277;138004;-75
2022/02/08 00:37:17;;;;;;;25.50;6.00;;;;;;;1.04;81.27;98558.51;105873;1277;24202;-74
2022/02/08 00:39:43;;;;;;;20.40;4.80;;;;;;;1.04;81.29;98564.94;106364;1277;23332;-75
2022/02/08 00:42:11;;;;;;;20.40;5.10;;;;;;;1.05;81.31;98567.80;105802;1277;138500;-74
2022/02/08 00:44:47;;;;;;;18.00;4.30;;;;;;;1.07;81.32;98567.27;106304;1277;25688;-74
2022/02/08 00:49:46;;;;;;;19.40;4.70;;;;;;;1.08;81.21;98570.86;105997;1277;25637;-74
2022/02/08 00:52:16;;;;;;;18.90;4.60;;;;;;;1.08;81.22;98575.77;106051;1280;22755;-74
2022/02/08 00:54:47;;;;;;;19.30;4.40;;;;;;;1.08;81.05;98578.98;106019;1277;138026;-75
2022/02/08 00:57:14;;;;;;;16.60;5.40;;;;;;;1.09;81.20;98583.22;106171;1277;22704;-75
2022/02/08 00:59:41;;;;;;;19.20;3.70;;;;;;;1.10;81.30;98582.24;105888;1279;138079;-75
2022/02/08 01:02:10;;;;;;;15.50;4.50;;;;;;;1.12;81.43;98586.12;106367;1275;23054;-75
2022/02/08 01:04:36;;;;;;;19.90;4.00;;;;;;;1.14;81.33;98587.37;106209;1277;137823;-75
2022/02/08 01:07:07;;;;;;;12.20;3.70;;;;;;;1.14;81.14;98592.91;105953;1277;25337;-75
2022/02/08 01:09:52;;;;;;;18.00;4.00;;;;;;;1.13;81.08;98594.39;105946;1278;21937;-75
2022/02/08 01:12:19;;;;;;;17.60;4.00;;;;;;;1.16;81.08;98602.55;106134;1277;137621;-75
2022/02/08 01:14:49;;;;;;;17.50;3.80;;;;;;;1.17;81.10;98601.10;105956;1279;24249;-77
2022/02/08 01:17:30;;;;;;;14.30;4.00;;;;;;;1.18;80.94;98603.37;105791;1279;137697;-74
2022/02/08 01:22:26;;;;;;;20.30;4.40;;;;;;;1.17;80.86;98603.65;105967;1281;22707;-74
2022/02/08 01:24:52;;;;;;;15.70;4.70;;;;;;;1.18;80.85;98607.66;105915;1280;138126;-74
2022/02/08 01:27:28;;;;;;;16.40;4.60;;;;;;;1.18;81.18;98603.37;106092;1278;23182;-74
2022/02/08 01:29:57;;;;;;;16.20;4.00;;;;;;;1.18;81.10;98607.48;106032;1277;137807;-74
2022/02/08 01:37:42;;;;;;;15.40;3.40;;;;;;;1.16;81.04;98614.63;105731;1277;22565;-75
2022/02/08 01:48:47;;;;;;;16.90;3.70;;;;;;;1.19;81.25;98630.88;105689;1277;137463;-75
2022/02/08 01:51:14;;;;;;;12.30;3.20;;;;;;;1.19;81.34;98634.58;106543;1277;22573;-74
2022/02/08 01:53:40;;;;;;;12.00;3.20;;;;;;;1.18;81.32;98638.20;105926;1280;138349;-74
2022/02/08 01:56:08;;;;;;;18.30;3.70;;;;;;;1.17;81.23;98640.25;106312;1277;23351;-75
2022/02/08 01:58:36;;;;;;;11.20;3.10;;;;;;;1.17;81.40;98644.02;106172;1277;138664;-74
2022/02/08 02:01:20;;;;;;;14.90;3.10;;;;;;;1.19;81.12;98649.18;106322;1274;22602;-74
2022/02/08 02:03:47;;;;;;;13.00;3.20;;;;;;;1.19;81.38;98654.92;107227;1276;22634;-74
2022/02/08 02:06:13;;;;;;;13.20;3.30;;;;;;;1.18;81.56;98659.52;106837;1276;137373;-74
2022/02/08 02:08:40;;;;;;;13.50;2.70;;;;;;;1.17;81.45;98663.36;106345;1276;22569;-75
2022/02/08 02:11:09;;;;;;;12.20;3.40;;;;;;;1.18;81.52;98668.41;106433;1277;138801;-74
2022/02/08 02:13:50;;;;;;;16.90;3.20;;;;;;;1.18;81.59;98666.09;106184;1277;22573;-74
2022/02/08 02:16:25;;;;;;;11.90;2.90;;;;;;;1.17;81.69;98675.98;106422;1277;26127;-75
2022/02/08 02:18:51;;;;;;;15.50;3.30;;;;;;;1.17;81.95;98677.80;106436;1277;137221;-74
2022/02/08 02:21:19;;;;;;;12.00;3.10;;;;;;;1.16;81.84;98678.86;106385;1276;22548;-74
2022/02/08 02:23:48;;;;;;;15.70;2.60;;;;;;;1.15;82.02;98677.38;106084;1276;138037;-76
2022/02/08 02:26:19;;;;;;;13.00;3.00;;;;;;;1.14;82.00;98681.17;106202;1276;22633;-76
2022/02/08 02:28:45;;;;;;;11.80;4.20;;;;;;;1.16;82.09;98678.85;106090;1276;137909;-74
2022/02/08 02:31:11;;;;;;;14.20;4.20;;;;;;;1.15;81.92;98686.98;106350;1276;25467;-75
2022/02/08 02:33:38;;;;;;;12.80;3.10;;;;;;;1.13;82.17;98681.89;106180;1277;22547;-74
2022/02/08 02:36:07;;;;;;;17.60;3.50;;;;;;;1.10;82.36;98685.04;106133;1280;137635;-75
2022/02/08 02:38:34;;;;;;;15.10;3.50;;;;;;;1.09;82.46;98687.31;106482;1277;25235;-74
2022/02/08 02:41:00;;;;;;;12.20;3.40;;;;;;;1.09;82.47;98687.29;106280;1280;138225;-75
2022/02/08 02:43:28;;;;;;;12.30;2.90;;;;;;;1.10;82.76;98690.93;106118;1274;22703;-74
2022/02/08 02:45:57;;;;;;;14.50;3.60;;;;;;;1.09;82.76;98697.75;106339;1276;25405;-75
2022/02/08 02:48:24;;;;;;;;;;;;;;;1.07;82.79;98698.67;106456;1277;137709;-74
2022/02/08 02:50:54;;;;;;;15.60;3.20;;;;;;;1.05;82.99;98698.70;107326;1276;23362;-75
2022/02/08 02:53:26;;;;;;;20.50;4.70;;;;;;;1.01;83.24;98704.04;106468;1277;137923;-75
2022/02/08 02:55:53;;;;;;;;;;;;;;;0.99;83.20;98714.47;106414;1277;22547;-75
2022/02/08 02:58:23;;;;;;;18.90;3.60;;;;;;;0.97;83.34;98717.17;106437;1277;27534;-74
2022/02/08 03:01:07;;;;;;;18.90;4.80;;;;;;;0.98;83.56;98725.27;106135;1277;137478;-75
2022/02/08 03:19:58;;;;;;;17.00;4.00;;;;;;;0.99;83.74;98752.30;106050;1277;23362;-76
2022/02/08 03:22:25;;;;;;;12.40;4.20;;;;;;;1.00;83.99;98755.66;105980;1277;23938;-77
2022/02/08 03:24:52;;;;;;;12.40;2.80;;;;;;;1.00;84.10;98759.02;106200;1279;138167;-77
2022/02/08 03:27:19;;;;;;;14.80;3.30;;;;;;;1.02;83.90;98760.23;106220;1277;22556;-77
2022/02/08 03:29:47;;;;;;;10.90;2.70;;;;;;;1.03;84.07;98765.10;106174;1277;138051;-77
2022/02/08 03:32:17;;;;;;;20.20;3.70;;;;;;;1.03;84.20;98768.73;106032;1279;22694;-75
2022/02/08 03:34:44;;;;;;;14.70;3.10;;;;;;;1.03;84.24;98775.86;106270;1278;137671;-75
2022/02/08 03:37:12;;;;;;;11.00;3.10;;;;;;;1.01;84.31;98776.60;105946;1277;23395;-76
2022/02/08 03:39:44;;;;;;;15.20;3.50;;;;;;;1.02;84.37;98781.53;106032;1277;24271;-74
2022/02/08 03:42:22;;;;;;;12.20;3.00;;;;;;;1.01;84.60;98784.23;105863;1278;138650;-74
2022/02/08 03:45:10;;;;;;;9.70;3.00;;;;;;;1.02;84.69;98787.92;106249;1277;30164;-74
2022/02/08 03:47:37;;;;;;;16.30;4.10;;;;;;;1.02;84.74;98794.33;106141;1277;137228;-74
2022/02/08 03:50:05;;;;;;;17.30;3.60;;;;;;;1.01;84.85;98792.48;106118;1280;25273;-74
2022/02/08 03:52:32;;;;;;;15.30;3.70;;;;;;;1.00;84.71;98794.64;105942;1277;138103;-74
2022/02/08 03:54:59;;;;;;;17.90;3.80;;;;;;;0.98;84.64;98800.35;105980;1277;26496;-74
2022/02/08 03:57:27;;;;;;;21.20;3.40;;;;;;;0.98;84.89;98802.20;106429;1277;22616;-74
2022/02/08 03:59:55;;;;;;;17.00;5.30;;;;;;;0.99;84.81;98807.29;106200;1279;138321;-74
2022/02/08 04:02:34;;;;;;;13.60;3.40;;;;;;;0.99;84.66;98808.05;106157;1279;22566;-75
2022/02/08 04:05:10;;;;;;;11.30;4.20;;;;;;;1.00;84.93;98816.60;105967;1277;137617;-74
2022/02/08 04:07:47;;;;;;;15.30;3.30;;;;;;;1.00;84.92;98820.02;106158;1277;22549;-75
2022/02/08 04:10:20;;;;;;;15.20;4.10;;;;;;;0.99;84.77;98825.15;106692;1277;24703;-74
2022/02/08 04:13:00;;;;;;;17.00;3.40;;;;;;;1.00;84.91;98827.69;106068;1277;138152;-74
2022/02/08 04:15:40;;;;;;;17.10;4.40;;;;;;;1.00;84.98;98835.13;106219;1277;22607;-74
2022/02/08 04:42:38;;;;;;;19.10;3.30;;;;;;;1.04;84.61;98870.48;105835;1278;138323;-75
2022/02/08 04:45:10;;;;;;;16.00;4.00;;;;;;;1.03;84.61;98876.83;105889;1277;22560;-75
2022/02/08 04:47:45;;;;;;;13.30;3.60;;;;;;;1.04;84.66;98882.41;105885;1279;137308;-75
2022/02/08 04:50:15;;;;;;;21.10;4.70;;;;;;;1.02;84.37;98886.98;106023;1279;22548;-74
2022/02/08 04:52:41;;;;;;;16.60;3.60;;;;;;;1.02;84.62;98888.97;105992;1279;137658;-75
2022/02/08 05:00:20;;;;;;;22.90;4.10;;;;;;;1.04;84.54;98901.92;106444;1277;137810;-74
2022/02/08 05:35:57;;;;;;;14.70;3.80;;;;;;;0.89;85.52;98931.87;105926;1277;123876;-75
2022/02/08 05:44:09;;;;;;;23.50;5.90;;;;;;;0.91;85.34;98933.64;106420;1278;24205;-75
2022/02/08 05:54:41;;;;;;;15.90;3.60;;;;;;;0.97;84.56;98948.10;106052;1277;137942;-74
2022/02/08 05:57:10;;;;;;;18.10;3.90;;;;;;;1.00;84.57;98952.50;106492;1277;24321;-74
2022/02/08 05:59:37;;;;;;;;;;;;;;;1.02;84.48;98954.94;105870;1278;137900;-74
2022/02/08 06:02:03;;;;;;;12.80;3.00;;;;;;;1.02;84.16;98955.23;106144;1278;22704;-74
2022/02/08 06:05:09;;;;;;;11.90;2.50;;;;;;;1.02;83.96;98956.67;106066;1277;138166;-74
2022/02/08 06:07:35;;;;;;;11.00;2.90;;;;;;;1.02;83.81;98962.05;105994;1277;23193;-76
2022/02/08 06:10:02;;;;;;;14.00;2.60;;;;;;;1.04;83.64;98963.05;105799;1279;22569;-74
2022/02/08 06:12:29;;;;;;;17.00;3.60;;;;;;;1.07;83.55;98961.52;105669;1279;138154;-74
2022/02/08 06:15:19;;;;;;;13.60;4.00;;;;;;;1.08;83.21;98964.90;105769;1279;22645;-75
2022/02/08 06:17:47;;;;;;;14.60;3.10;;;;;;;1.09;83.40;98969.10;105903;1277;137416;-74
2022/02/08 06:20:14;;;;;;;12.20;2.90;;;;;;;1.09;83.18;98978.58;105996;1277;22582;-74
2022/02/08 06:22:42;;;;;;;12.60;3.20;;;;;;;1.09;83.05;98977.14;105905;1277;24502;-75
2022/02/08 06:25:12;;;;;;;10.10;2.80;;;;;;;1.12;83.04;98982.94;105923;1277;138032;-75
2022/02/08 06:27:40;;;;;;;10.90;2.60;;;;;;;1.14;82.98;98984.71;106042;1279;25506;-74
2022/02/08 06:30:08;;;;;;;14.20;3.50;;;;;;;1.15;82.82;98993.36;105942;1279;137378;-74
2022/02/08 06:32:36;;;;;;;13.50;3.70;;;;;;;1.15;83.20;98994.36;105816;1279;22713;-74
2022/02/08 06:35:22;;;;;;;15.70;3.10;;;;;;;1.16;83.08;98998.21;105819;1279;137685;-75
2022/02/08 06:37:48;;;;;;;15.10;3.20;;;;;;;1.17;82.83;99002.04;106310;1277;24542;-74
2022/02/08 06:40:15;;;;;;;15.60;3.60;;;;;;;1.19;82.74;99006.33;106517;1277;22547;-75
2022/02/08 06:42:43;;;;;;;12.80;2.90;;;;;;;1.22;82.58;99005.48;106196;1277;138336;-75
2022/02/08 06:45:11;;;;;;;13.70;3.60;;;;;;;1.23;82.55;99010.52;106324;1277;22724;-75
2022/02/08 06:47:52;;;;;;;18.80;4.00;;;;;;;1.24;82.76;99014.36;106096;1277;137392;-74
2022/02/08 06:50:19;;;;;;;12.40;3.80;;;;;;;1.24;82.45;99015.90;106243;1276;24125;-74
2022/02/08 06:53:00;;;;;;;15.80;3.20;;;;;;;1.26;82.17;99020.20;105763;1277;139444;-74
2022/02/08 06:55:28;;;;;;;12.00;2.60;;;;;;;1.29;82.19;99024.88;106280;1276;25385;-74
2022/02/08 06:58:04;;;;;;;18.00;5.00;;;;;;;1.31;82.14;99029.60;106333;1276;22719;-74
2022/02/08 07:00:35;;;;;;;16.30;3.20;;;;;;;1.33;82.15;99034.59;105883;1277;137892;-74
2022/02/08 07:03:17;;;;;;;16.50;3.30;;;;;;;1.33;81.96;99039.59;106179;1277;22708;-74
2022/02/08 07:05:43;;;;;;;12.30;4.10;;;;;;;1.33;81.90;99037.61;105859;1277;137870;-74
2022/02/08 07:08:10;;;;;;;9.30;3.20;;;;;;;1.35;81.71;99040.62;105822;1279;22573;-74
2022/02/08 07:10:38;;;;;;;22.80;5.20;;;;;;;1.38;81.64;99038.48;105786;1277;24261;-74
2022/02/08 07:13:07;;;;;;;13.10;3.50;;;;;;;1.42;81.69;99047.52;106159;1276;137946;-74
2022/02/08 07:15:34;;;;;;;18.10;2.80;;;;;;;1.44;81.52;99049.09;106362;1277;22550;-74
2022/02/08 07:18:02;;;;;;;14.70;4.20;;;;;;;1.45;81.38;99050.10;106054;1279;137359;-75
2022/02/08 07:20:31;;;;;;;17.80;3.30;;;;;;;1.47;81.47;99054.48;105704;1279;22550;-75
2022/02/08 07:22:58;;;;;;;16.20;4.80;;;;;;;1.51;81.43;99053.35;105767;1279;137932;-75
2022/02/08 07:25:26;;;;;;;14.20;3.50;;;;;;;1.54;81.10;99050.48;105979;1279;22866;-75
2022/02/08 07:28:08;;;;;;;14.10;4.00;;;;;;;1.59;80.87;99052.77;106541;1277;22560;-75
2022/02/08 07:30:37;;;;;;;12.90;3.30;;;;;;;1.64;81.07;99049.27;105800;1277;137705;-75
2022/02/08 07:33:04;;;;;;;16.60;3.40;;;;;;;1.69;80.79;99051.47;105728;1280;23074;-74
2022/02/08 07:35:48;;;;;;;14.40;2.90;;;;;;;1.76;80.66;99060.20;105911;1277;138774;-75
2022/02/08 07:38:24;;;;;;;17.30;3.20;;;;;;;1.82;80.53;99063.10;106494;1276;24915;-75
2022/02/08 07:43:18;;;;;;;12.40;2.40;;;;;;;1.91;80.39;99066.39;106567;1276;137818;-74
2022/02/08 07:46:05;;;;;;;14.80;3.70;;;;;;;1.93;80.14;99066.36;106397;1276;22593;-74
2022/02/08 07:48:34;;;;;;;16.70;3.70;;;;;;;1.95;80.06;99068.79;105879;1277;138301;-74
2022/02/08 07:51:01;;;;;;;12.30;3.30;;;;;;;1.99;79.99;99066.39;106282;1277;25330;-74
2022/02/08 07:53:28;;;;;;;12.80;3.60;;;;;;;2.03;79.94;99067.58;106493;1277;138321;-75
2022/02/08 07:55:55;;;;;;;14.50;3.70;;;;;;;2.08;79.71;99069.30;106314;1277;22577;-75
2022/02/08 07:58:22;;;;;;;15.70;3.90;;;;;;;2.14;79.82;99069.17;106509;1277;22562;-75
2022/02/08 08:00:48;;;;;;;11.00;3.40;;;;;;;2.19;79.69;99068.44;106939;1276;137344;-74
2022/02/08 08:03:15;;;;;;;16.90;4.00;;;;;;;2.22;79.65;99067.35;106418;1277;26101;-75
2022/02/08 08:05:42;;;;;;;16.10;4.60;;;;;;;2.25;79.58;99063.38;107093;1276;138191;-75
2022/02/08 08:08:11;;;;;;;12.50;3.70;;;;;;;2.29;79.15;99067.32;106320;1277;22727;-75
2022/02/08 08:10:43;;;;;;;15.50;4.00;;;;;;;2.30;79.24;99067.30;107399;1277;25270;-75
2022/02/08 08:13:12;;;;;;;14.60;4.70;;;;;;;2.33;79.15;99066.12;107030;1277;137447;-75
2022/02/08 08:15:48;;;;;;;17.60;4.10;;;;;;;2.34;78.79;99066.32;106889;1277;22689;-74
2022/02/08 08:18:24;;;;;;;21.00;4.70;;;;;;;2.34;78.62;99065.77;106521;1277;137879;-74
2022/02/08 08:20:51;;;;;;;11.60;3.70;;;;;;;2.35;78.48;99068.91;106361;1277;24247;-74
2022/02/08 08:23:18;;;;;;;11.20;4.30;;;;;;;2.36;78.22;99069.83;106007;1280;138044;-74
2022/02/08 08:25:45;;;;;;;14.80;4.20;;;;;;;2.35;78.09;99068.33;106112;1277;24520;-75
2022/02/08 08:28:11;;;;;;;13.40;4.30;;;;;;;2.38;78.51;99072.16;106916;1277;22551;-74
2022/02/08 08:30:38;;;;;;;20.20;4.90;;;;;;;2.38;78.28;99072.47;106912;1277;139158;-75
2022/02/08 08:33:07;;;;;;;21.00;5.50;;;;;;;2.37;77.91;99073.67;106514;1276;22550;-74
2022/02/08 08:35:35;;;;;;;14.60;3.40;;;;;;;2.38;77.79;99077.73;106098;1278;139746;-76
2022/02/08 08:38:05;;;;;;;14.60;4.30;;;;;;;2.40;77.69;99078.37;106188;1277;22685;-75
2022/02/08 08:53:46;;;;;;;12.80;4.00;;;;;;;2.58;77.61;99053.55;106297;1277;138629;-75
2022/02/08 08:56:13;;;;;;;24.30;5.60;;;;;;;2.60;77.36;99047.77;106165;1278;22603;-74
2022/02/08 08:58:44;;;;;;;15.70;5.00;;;;;;;2.60;77.35;99045.75;106218;1278;22568;-75
2022/02/08 09:01:14;;;;;;;22.70;5.20;;;;;;;2.63;77.65;99037.19;106915;1277;138147;-74
2022/02/08 09:03:42;;;;;;;16.30;4.90;;;;;;;2.67;77.42;99036.34;106902;1277;25474;-75
2022/02/08 09:06:09;;;;;;;20.00;4.80;;;;;;;2.68;76.93;99036.41;106659;1277;137382;-74
2022/02/08 09:08:39;;;;;;;12.70;4.30;;;;;;;2.69;76.94;99036.70;106761;1277;25454;-75
2022/02/08 09:11:20;;;;;;;15.90;4.50;;;;;;;2.70;76.68;99033.65;106364;1277;138886;-75
2022/02/08 09:14:25;;;;;;;18.70;4.40;;;;;;;2.76;76.39;99035.64;106463;1277;22548;-75
2022/02/08 09:17:16;;;;;;;13.00;4.30;;;;;;;2.81;75.85;99035.44;106236;1279;22557;-75
2022/02/08 09:25:09;;;;;;;18.80;4.40;;;;;;;2.97;75.27;99041.00;105990;1278;137407;-75
2022/02/08 09:30:30;;;;;;;13.80;4.50;;;;;;;3.03;74.77;99050.72;106380;1277;137463;-75
2022/02/08 09:32:56;;;;;;;13.30;3.90;;;;;;;3.04;74.65;99054.91;106531;1277;23340;-77
2022/02/08 09:35:22;;;;;;;16.50;4.70;;;;;;;3.04;74.40;99054.33;105954;1277;137838;-76
2022/02/08 09:37:49;;;;;;;15.20;4.90;;;;;;;3.09;74.47;99058.67;106067;1277;22571;-75
2022/02/08 09:40:19;;;;;;;18.60;6.50;;;;;;;3.18;74.64;99049.84;106252;1280;23975;-75
2022/02/08 09:42:47;;;;;;;21.40;5.80;;;;;;;3.27;73.55;99056.02;106175;1276;137965;-75
2022/02/08 09:45:18;;;;;;;25.80;4.60;;;;;;;3.34;73.68;99058.09;106138;1279;22618;-76
2022/02/08 09:47:57;;;;;;;16.80;3.80;;;;;;;3.38;73.35;99048.56;106132;1280;137604;-76
2022/02/08 09:50:28;;;;;;;10.90;3.50;;;;;;;3.40;73.54;99052.83;105878;1278;24296;-74
2022/02/08 09:52:59;;;;;;;12.60;2.70;;;;;;;3.39;73.17;99052.42;106055;1277;24984;-74
2022/02/08 09:55:28;;;;;;;15.40;3.00;;;;;;;3.33;72.34;99051.52;106472;1277;229467;-75
2022/02/08 09:57:56;;;;;;;14.40;3.50;;;;;;;3.30;72.92;99053.66;107723;1277;22718;-75
2022/02/08 10:00:24;;;;;;;14.30;3.80;;;;;;;3.31;72.91;99055.20;106915;1277;137764;-75
2022/02/08 10:02:50;;;;;;;14.70;4.60;;;;;;;3.29;72.60;99046.77;106864;1279;22617;-75
2022/02/08 10:05:18;;;;;;;11.10;3.80;;;;;;;3.29;72.38;99032.31;106711;1276;138411;-75
2022/02/08 10:07:45;;;;;;;12.40;3.00;;;;;;;3.30;72.03;99030.02;106700;1276;23414;-75
2022/02/08 10:10:22;;;;;;;14.20;4.40;;;;;;;3.33;72.60;99017.02;106927;1279;22721;-75
2022/02/08 10:24:06;;;;;;;15.70;4.10;;;;;;;3.71;71.86;99011.74;106496;1279;137868;-75
2022/02/08 10:29:27;;;;;;;11.70;4.60;;;;;;;3.90;72.45;99005.72;106613;1276;24007;-75
2022/02/08 10:40:05;;;;;;;20.20;6.30;;;;;;;4.40;71.15;98982.61;106314;1277;26512;-75
2022/02/08 10:42:32;;;;;;;17.50;4.20;;;;;;;4.42;70.16;98983.25;106149;1277;137375;-77
2022/02/08 10:45:00;;;;;;;15.50;3.90;;;;;;;4.41;69.78;98988.70;106275;1277;22999;-76
2022/02/08 10:47:41;;;;;;;13.00;3.40;;;;;;;4.38;70.18;98989.81;106720;1278;22554;-76
2022/02/08 10:50:09;;;;;;;14.90;3.10;;;;;;;4.36;70.31;98986.00;106244;1278;138397;-75
2022/02/08 10:52:38;;;;;;;12.80;3.80;;;;;;;4.32;69.89;98983.39;106263;1277;22569;-77
2022/02/08 11:00:36;;;;;;;16.30;4.10;;;;;;;4.25;70.47;98982.83;106137;1277;137803;-74
2022/02/08 11:03:07;;;;;;;;;;;;;;;4.26;70.68;98986.31;106301;1280;25188;-76
2022/02/08 11:05:49;;;;;;;13.30;3.80;;;;;;;4.34;71.00;98986.11;106258;1277;25418;-74
2022/02/08 11:08:32;;;;;;;19.80;4.00;;;;;;;4.51;70.43;98975.36;106196;1277;137667;-75
2022/02/08 11:11:25;;;;;;;10.80;3.10;;;;;;;4.67;69.98;98971.11;106931;1277;24094;-75
2022/02/08 11:22:50;;;;;;;12.00;4.10;;;;;;;4.73;68.92;98974.16;106108;1277;22573;-74
2022/02/08 11:25:38;;;;;;;13.20;4.30;;;;;;;4.66;68.25;98956.16;106586;1277;137504;-74
2022/02/08 11:28:40;;;;;;;13.00;3.50;;;;;;;4.64;68.91;98952.95;107571;1277;24368;-74
2022/02/08 11:45:21;;;;;;;12.20;3.40;;;;;;;4.79;66.68;98931.19;105935;1277;22666;-75
2022/02/08 11:59:13;;;;;;;20.30;6.00;;;;;;;5.02;67.20;98904.05;105860;1278;25397;-75
2022/02/08 12:10:07;;;;;;;16.60;5.30;;;;;;;5.15;67.26;98908.30;106233;1277;22567;-75
2022/02/08 12:12:50;;;;;;;17.70;4.70;;;;;;;5.19;66.69;98895.90;105886;1277;137995;-77
2022/02/08 13:00:25;;;;;;;21.30;6.40;;;;;;;4.92;63.13;98822.64;106163;1278;22586;-74
2022/02/08 13:32:14;;;;;;;10.80;3.60;;;;;;;4.82;62.42;98802.90;106116;1277;137398;-74
2022/02/08 14:08:35;;;;;;;12.40;5.00;;;;;;;4.59;63.23;98792.36;106466;1277;137394;-75
2022/02/08 14:32:23;;;;;;;13.40;4.30;;;;;;;4.13;65.24;98775.00;106253;1278;137310;-77
2022/02/08 15:07:47;;;;;;;13.20;5.10;;;;;;;3.50;70.70;98792.21;106281;1277;138310;-75
2022/02/08 15:09:58;;;;;;;6.90;3.80;;;;;;;3.48;71.68;98796.61;106012;1279;22587;-77
2022/02/08 15:12:28;;;;;;;8.70;3.50;;;;;;;3.45;71.89;98796.30;105824;1278;25267;-74
2022/02/08 15:15:10;;;;;;;11.50;4.90;;;;;;;3.39;72.41;98792.29;106026;1278;137185;-75
2022/02/08 15:17:36;;;;;;;10.30;5.40;;;;;;;3.35;73.00;98792.29;106030;1278;22552;-75
2022/02/08 15:23:44;;;;;;;12.20;4.90;;;;;;;3.25;73.51;98794.11;106249;1277;22549;-75
2022/02/08 15:26:11;;;;;;;8.60;3.90;;;;;;;3.22;73.76;98792.11;106118;1277;138581;-75
2022/02/08 15:28:39;;;;;;;8.00;3.80;;;;;;;3.20;73.78;98789.63;106152;1280;22658;-75
2022/02/08 15:31:05;;;;;;;14.70;5.00;;;;;;;3.21;73.95;98792.13;105953;1277;137275;-75
2022/02/08 15:33:32;;;;;;;10.90;4.60;;;;;;;3.20;74.11;98787.11;106175;1277;22552;-76
2022/02/08 15:35:58;;;;;;;10.20;4.80;;;;;;;3.19;74.34;98783.75;106066;1279;24302;-74
2022/02/08 15:38:29;;;;;;;10.70;4.90;;;;;;;3.16;74.23;98776.92;106051;1277;138845;-74
2022/02/08 15:40:57;;;;;;;10.90;5.10;;;;;;;3.14;74.54;98771.90;106078;1277;24440;-74
2022/02/08 15:43:24;;;;;;;14.30;4.80;;;;;;;3.14;74.88;98768.08;106015;1280;138519;-74
2022/02/08 15:45:54;;;;;;;12.50;5.40;;;;;;;3.13;75.35;98764.59;106454;1277;22666;-74
2022/02/08 15:48:23;;;;;;;14.20;5.50;;;;;;;3.11;75.86;98762.42;105944;1278;22595;-74
2022/02/08 15:58:23;;;;;;;11.20;4.90;;;;;;;3.01;76.77;98759.00;106071;1280;24298;-75
2022/02/08 16:09:11;;;;;;;17.10;6.80;;;;;;;2.98;77.28;98754.67;106090;1278;138113;-74
2022/02/08 16:22:58;;;;;;;49.30;14.00;;;;;;;2.95;77.77;98754.58;105659;1279;31277;-74
2022/02/08 16:49:50;;;;;;;14.70;6.50;;;;;;;2.98;79.42;98768.17;106142;1277;138276;-74
2022/02/08 16:55:24;;;;;;;12.70;6.40;;;;;;;2.91;80.12;98768.05;106308;1277;137887;-74
2022/02/08 17:00:38;;;;;;;18.60;6.10;;;;;;;2.85;80.93;98758.09;106174;1277;22563;-76
2022/02/08 17:03:07;;;;;;;14.90;6.60;;;;;;;2.81;81.26;98750.27;106266;1277;138834;-77
2022/02/08 17:05:34;;;;;;;14.50;6.50;;;;;;;2.78;81.55;98747.44;107817;1277;22684;-75
2022/02/08 17:08:01;;;;;;;13.50;7.00;;;;;;;2.75;81.97;98743.69;106777;1277;138181;-74
2022/02/08 17:10:37;;;;;;;16.60;6.60;;;;;;;2.72;82.36;98749.99;107325;1277;22566;-74
2022/02/08 17:13:26;;;;;;;15.50;6.90;;;;;;;2.71;82.67;98755.18;106215;1277;138346;-74
2022/02/08 17:16:11;;;;;;;18.00;6.40;;;;;;;2.69;82.83;98765.08;106625;1277;24415;-74
2022/02/08 17:44:58;;;;;;;14.30;7.10;;;;;;;2.52;85.73;98751.73;106657;1277;138578;-75
2022/02/08 17:46:19;;;;;;;16.90;8.10;;;;;;;2.47;86.90;98755.13;106942;1277;22573;-74
2022/02/08 17:48:47;;;;;;;18.00;9.20;;;;;;;2.45;86.89;98750.50;108071;1277;24265;-75
2022/02/08 17:51:14;;;;;;;14.60;7.90;;;;;;;2.46;87.08;98754.36;106587;1280;138550;-74
2022/02/08 17:53:40;;;;;;;15.80;8.10;;;;;;;2.48;87.25;98752.15;106890;1278;25331;-75
2022/02/08 17:56:07;;;;;;;16.80;8.00;;;;;;;2.50;87.54;98750.05;107882;1277;138132;-75
2022/02/08 17:58:35;;;;;;;17.10;7.70;;;;;;;2.50;87.46;98754.85;107745;1277;24259;-74
2022/02/08 18:01:01;;;;;;;18.50;9.30;;;;;;;2.50;87.96;98752.38;107814;1277;139177;-75
2022/02/08 18:03:28;;;;;;;13.30;6.70;;;;;;;2.50;88.13;98748.54;107244;1277;22711;-75
2022/02/08 18:06:10;;;;;;;19.80;9.00;;;;;;;2.51;88.55;98746.98;106366;1277;23263;-75
2022/02/08 18:08:38;;;;;;;16.40;7.90;;;;;;;2.53;88.56;98747.30;106642;1277;138047;-76
2022/02/08 18:11:04;;;;;;;17.60;8.30;;;;;;;2.54;88.75;98740.02;106125;1277;22701;-77
2022/02/08 18:13:33;;;;;;;17.40;9.10;;;;;;;2.55;88.84;98735.98;106114;1277;138638;-77
2022/02/08 18:16:00;;;;;;;13.60;7.50;;;;;;;2.57;89.04;98738.78;106461;1277;23915;-76
2022/02/08 18:18:29;;;;;;;15.40;7.90;;;;;;;2.58;89.26;98737.02;106236;1277;24072;-77
2022/02/08 18:20:59;;;;;;;15.50;7.50;;;;;;;2.60;89.38;98741.27;106057;1277;138048;-77
2022/02/08 18:27:20;;;;;;;25.50;9.00;;;;;;;2.62;89.73;98729.00;106730;1277;123923;-74
2022/02/08 19:03:21;;;;;;;17.00;9.00;;;;;;;2.87;90.82;98764.35;106118;1277;23481;-74
2022/02/08 19:07:05;;;;;;;14.10;7.30;;;;;;;2.96;90.88;98777.27;106224;1277;22576;-75
2022/02/08 19:09:20;;;;;;;;;;;;;;;2.97;90.92;98770.82;106066;1276;138264;-74
2022/02/08 19:19:58;;;;;;;10.50;6.80;;;;;;;3.04;91.29;98776.02;106107;1277;137717;-74
2022/02/08 19:22:26;;;;;;;11.50;6.90;;;;;;;3.05;91.34;98773.98;106450;1277;24212;-74
2022/02/08 19:24:53;;;;;;;8.70;6.10;;;;;;;3.07;91.28;98778.39;106827;1276;138911;-76
2022/02/08 19:27:20;;;;;;;8.90;5.70;;;;;;;3.09;91.44;98783.84;106417;1276;22568;-74
2022/02/08 19:29:47;;;;;;;8.00;5.00;;;;;;;3.12;91.40;98783.83;105859;1276;22570;-74
2022/02/08 19:32:14;;;;;;;11.00;6.20;;;;;;;3.15;91.59;98783.16;106099;1276;137425;-74
2022/02/08 19:34:43;;;;;;;8.80;5.40;;;;;;;3.16;91.70;98785.08;106681;1276;25436;-75
2022/02/08 19:37:11;;;;;;;10.30;6.90;;;;;;;3.18;92.01;98785.51;106293;1277;141048;-74
2022/02/08 19:39:40;;;;;;;9.50;6.30;;;;;;;3.19;91.70;98788.22;106059;1277;22605;-74
2022/02/08 19:42:09;;;;;;;10.90;6.30;;;;;;;3.22;91.85;98783.91;106353;1277;24288;-74
2022/02/08 19:44:36;;;;;;;9.40;5.90;;;;;;;3.25;91.94;98793.75;106340;1279;137867;-74
2022/02/08 19:47:04;;;;;;;10.90;6.10;;;;;;;3.26;91.90;98793.63;106482;1279;25356;-74
2022/02/08 19:49:31;;;;;;;10.70;7.40;;;;;;;3.27;92.07;98797.09;106421;1279;138277;-74
2022/02/08 19:51:58;;;;;;;10.00;6.00;;;;;;;3.29;92.02;98796.48;106236;1277;25298;-74
2022/02/08 19:54:28;;;;;;;9.20;6.20;;;;;;;3.32;91.97;98798.44;106538;1278;22304;-74
2022/02/08 19:57:11;;;;;;;10.40;6.60;;;;;;;3.34;92.11;98788.71;106890;1277;137417;-74
2022/02/08 19:59:41;;;;;;;10.90;6.30;;;;;;;3.35;92.26;98788.77;106109;1277;23970;-77